createdAt,value
2022-11-08T00:00:05.307Z,0.63
2022-11-08T00:02:33.728Z,0.70
2022-11-08T00:05:19.629Z,0.90
2022-11-08T00:08:05.465Z,0.90
2022-11-08T00:10:52.683Z,0.80
2022-11-08T00:13:38.716Z,0.90
2022-11-08T00:16:07.236Z,0.93
2022-11-08T00:18:35.502Z,0.77
2022-11-08T00:21:03.922Z,1.13
2022-11-08T00:23:32.258Z,0.77
2022-11-08T00:26:01.927Z,1.00
2022-11-08T00:28:30.271Z,1.10
2022-11-08T00:30:58.536Z,0.87
2022-11-08T00:33:26.856Z,0.90
2022-11-08T00:35:55.159Z,0.80
2022-11-08T00:38:23.409Z,1.07
2022-11-08T00:40:51.827Z,1.10
2022-11-08T00:43:21.582Z,0.90
2022-11-08T00:45:49.892Z,0.70
2022-11-08T00:48:18.441Z,0.70
2022-11-08T00:50:46.950Z,0.93
2022-11-08T00:53:15.205Z,0.50
2022-11-08T00:55:43.506Z,0.97
2022-11-08T00:58:11.811Z,0.80
2022-11-08T01:00:41.469Z,0.80
2022-11-08T01:03:21.816Z,1.07
2022-11-08T01:05:50.103Z,1.20
2022-11-08T01:08:18.902Z,1.10
2022-11-08T01:10:47.994Z,0.80
2022-11-08T01:13:16.297Z,0.90
2022-11-08T01:15:46.376Z,0.87
2022-11-08T01:18:15.227Z,0.77
2022-11-08T01:20:43.999Z,1.33
2022-11-08T01:23:12.411Z,0.80
2022-11-08T01:25:40.882Z,0.70
2022-11-08T01:28:09.263Z,0.87
2022-11-08T01:30:38.179Z,1.23
2022-11-08T01:33:07.908Z,0.67
2022-11-08T01:35:36.273Z,0.70
2022-11-08T01:38:04.544Z,1.10
2022-11-08T01:40:32.891Z,0.73
2022-11-08T01:43:01.170Z,0.83
2022-11-08T01:45:53.243Z,0.73
2022-11-08T01:48:22.881Z,1.00
2022-11-08T01:50:51.158Z,0.47
2022-11-08T01:53:19.684Z,1.00
2022-11-08T01:55:47.975Z,0.67
2022-11-08T01:58:16.939Z,0.67
2022-11-08T02:00:45.473Z,1.07
2022-11-08T02:03:16.002Z,1.10
2022-11-08T02:05:45.757Z,0.70
2022-11-08T02:08:15.455Z,0.70
2022-11-08T02:10:44.550Z,0.77
2022-11-08T02:13:14.829Z,0.80
2022-11-08T02:15:43.650Z,0.63
2022-11-08T02:18:11.963Z,0.90
2022-11-08T02:20:40.262Z,0.77
2022-11-08T02:23:13.733Z,1.00
2022-11-08T02:25:43.375Z,0.53
2022-11-08T02:28:11.650Z,0.60
2022-11-08T02:30:39.985Z,1.57
2022-11-08T02:33:17.988Z,0.67
2022-11-08T02:35:46.577Z,0.30
2022-11-08T02:38:15.125Z,0.70
2022-11-08T02:40:48.457Z,0.60
2022-11-08T02:43:16.772Z,0.87
2022-11-08T02:45:45.037Z,0.83
2022-11-08T02:48:13.338Z,0.70
2022-11-08T02:50:41.595Z,0.70
2022-11-08T02:53:09.866Z,0.63
2022-11-08T02:55:38.141Z,0.67
2022-11-08T02:58:07.831Z,0.50
2022-11-08T03:00:36.399Z,0.80
2022-11-08T03:03:04.742Z,0.93
2022-11-08T03:05:33.074Z,0.70
2022-11-08T03:08:01.326Z,0.50
2022-11-08T03:10:29.800Z,0.40
2022-11-08T03:12:58.235Z,0.70
2022-11-08T03:15:27.890Z,0.50
2022-11-08T03:17:57.111Z,0.60
2022-11-08T03:20:31.151Z,0.47
2022-11-08T03:23:01.008Z,0.77
2022-11-08T03:25:29.318Z,0.50
2022-11-08T03:27:57.612Z,0.57
2022-11-08T03:30:25.937Z,0.50
2022-11-08T03:32:55.647Z,0.60
2022-11-08T03:35:23.965Z,0.47
2022-11-08T03:37:52.497Z,0.87
2022-11-08T03:40:20.793Z,0.83
2022-11-08T03:42:49.057Z,0.73
2022-11-08T03:45:17.466Z,0.43
2022-11-08T03:47:46.266Z,0.87
2022-11-08T03:50:16.226Z,0.80
2022-11-08T03:52:44.624Z,0.60
2022-11-08T03:55:12.923Z,0.50
2022-11-08T03:57:41.290Z,0.50
2022-11-08T04:00:10.127Z,0.40
2022-11-08T04:02:38.457Z,0.60
2022-11-08T04:05:07.345Z,0.80
2022-11-08T04:07:37.024Z,0.30
2022-11-08T04:10:05.497Z,0.80
2022-11-08T04:12:51.525Z,0.43
2022-11-08T04:15:20.554Z,0.40
2022-11-08T04:18:06.816Z,0.40
2022-11-08T04:20:52.638Z,0.97
2022-11-08T04:23:22.249Z,1.00
2022-11-08T04:25:54.576Z,0.50
2022-11-08T04:28:24.462Z,1.10
2022-11-08T04:30:56.234Z,1.20
2022-11-08T04:33:24.713Z,2.03
2022-11-08T04:35:53.048Z,1.73
2022-11-08T04:38:22.674Z,0.97
2022-11-08T04:40:50.954Z,1.40
2022-11-08T04:43:19.263Z,3.77
2022-11-08T04:45:47.539Z,3.97
2022-11-08T04:48:16.129Z,3.43
2022-11-08T04:50:44.617Z,4.13
2022-11-08T04:53:13.087Z,6.23
2022-11-08T04:55:42.759Z,4.97
2022-11-08T04:58:11.028Z,5.30
2022-11-08T05:00:39.263Z,4.47
2022-11-08T05:03:07.566Z,4.67
2022-11-08T05:05:35.839Z,4.93
2022-11-08T05:08:04.137Z,5.37
2022-11-08T05:10:32.453Z,4.43
2022-11-08T05:13:02.098Z,5.03
2022-11-08T05:15:30.356Z,4.17
2022-11-08T05:17:58.627Z,5.07
2022-11-08T05:20:44.569Z,4.03
2022-11-08T05:23:24.976Z,5.00
2022-11-08T05:25:53.419Z,4.70
2022-11-08T05:28:23.131Z,4.00
2022-11-08T05:30:55.114Z,3.90
2022-11-08T05:33:23.338Z,3.50
2022-11-08T05:35:51.600Z,3.87
2022-11-08T05:38:20.252Z,3.53
2022-11-08T05:40:48.767Z,3.40
2022-11-08T05:43:17.173Z,3.20
2022-11-08T05:45:48.125Z,4.40
2022-11-08T05:48:16.633Z,3.10
2022-11-08T05:50:45.222Z,3.13
2022-11-08T05:53:13.486Z,2.73
2022-11-08T05:55:41.844Z,3.47
2022-11-08T05:58:10.133Z,3.17
2022-11-08T06:00:38.353Z,2.90
2022-11-08T06:03:08.319Z,2.80
2022-11-08T06:05:36.664Z,3.00
2022-11-08T06:08:04.986Z,2.63
2022-11-08T06:10:33.387Z,3.37
2022-11-08T06:13:01.742Z,2.57
2022-11-08T06:15:30.005Z,2.20
2022-11-08T06:17:58.374Z,2.83
2022-11-08T06:20:28.159Z,2.17
2022-11-08T06:22:56.430Z,2.07
2022-11-08T06:25:24.824Z,2.43
2022-11-08T06:27:53.066Z,1.70
2022-11-08T06:30:31.075Z,2.30
2022-11-08T06:33:01.128Z,2.13
2022-11-08T06:35:29.359Z,2.17
2022-11-08T06:38:01.203Z,2.03
2022-11-08T06:40:32.375Z,1.57
2022-11-08T06:43:00.556Z,1.90
2022-11-08T06:45:28.790Z,2.17
2022-11-08T06:48:00.114Z,2.27
2022-11-08T06:50:28.327Z,1.43
2022-11-08T06:52:59.747Z,2.07
2022-11-08T06:55:27.967Z,1.83
2022-11-08T06:57:56.208Z,1.60
2022-11-08T07:00:24.608Z,1.70
2022-11-08T07:02:55.806Z,1.57
2022-11-08T07:05:25.684Z,1.50
2022-11-08T07:07:54.066Z,1.53
2022-11-08T07:10:22.550Z,1.93
2022-11-08T07:12:51.430Z,1.47
2022-11-08T07:15:21.326Z,1.50
2022-11-08T07:17:49.611Z,1.40
2022-11-08T07:20:18.213Z,1.33
2022-11-08T07:22:47.757Z,1.33
2022-11-08T07:25:16.006Z,1.00
2022-11-08T07:27:44.343Z,1.27
2022-11-08T07:30:13.174Z,1.50
2022-11-08T07:32:41.436Z,1.53
2022-11-08T07:35:10.081Z,1.53
2022-11-08T07:37:38.301Z,1.47
2022-11-08T07:40:08.913Z,0.70
2022-11-08T07:42:57.200Z,1.17
2022-11-08T07:45:26.380Z,1.23
2022-11-08T07:47:58.875Z,0.77
2022-11-08T07:50:27.131Z,0.80
2022-11-08T07:52:55.391Z,0.90
2022-11-08T07:55:24.979Z,0.90
2022-11-08T07:57:56.701Z,1.07
2022-11-08T08:00:25.081Z,1.23
2022-11-08T08:02:53.420Z,0.93
2022-11-08T08:05:21.675Z,1.07
2022-11-08T08:07:50.108Z,1.10
2022-11-08T08:10:18.463Z,0.93
2022-11-08T08:12:48.068Z,0.77
2022-11-08T08:15:16.420Z,0.90
2022-11-08T08:17:44.636Z,0.90
2022-11-08T08:20:13.464Z,0.60
2022-11-08T08:22:45.117Z,0.80
2022-11-08T08:25:13.338Z,0.97
2022-11-08T08:27:41.690Z,0.87
2022-11-08T08:30:11.972Z,1.40
2022-11-08T08:32:40.197Z,1.00
2022-11-08T08:35:08.660Z,1.27
2022-11-08T08:37:37.017Z,1.23
2022-11-08T08:40:05.382Z,1.20
2022-11-08T08:42:34.150Z,1.53
2022-11-08T08:45:02.751Z,1.00
2022-11-08T08:47:32.369Z,0.83
2022-11-08T08:50:00.569Z,0.93
2022-11-08T08:52:28.905Z,0.83
2022-11-08T08:54:57.139Z,0.80
2022-11-08T08:57:25.356Z,0.83
2022-11-08T09:02:43.366Z,1.07
2022-11-08T09:05:11.791Z,0.73
2022-11-08T09:07:40.044Z,0.80
2022-11-08T09:10:08.679Z,1.00
2022-11-08T09:12:37.132Z,0.80
2022-11-08T09:15:05.707Z,0.77
2022-11-08T09:17:33.946Z,0.63
2022-11-08T09:20:03.741Z,1.30
2022-11-08T09:22:33.909Z,0.50
2022-11-08T09:25:02.159Z,0.57
2022-11-08T09:27:30.539Z,0.90
2022-11-08T09:29:58.818Z,0.80
2022-11-08T09:32:39.743Z,0.97
2022-11-08T09:35:17.817Z,0.60
2022-11-08T09:37:49.640Z,0.77
2022-11-08T09:40:18.755Z,0.80
2022-11-08T09:42:48.826Z,0.57
2022-11-08T09:45:26.991Z,0.40
2022-11-08T09:47:56.804Z,0.63
2022-11-08T09:50:27.520Z,0.70
2022-11-08T09:52:57.023Z,0.60
2022-11-08T09:55:27.245Z,0.70
2022-11-08T09:58:00.806Z,0.97
2022-11-08T10:00:29.233Z,0.60
2022-11-08T10:02:57.477Z,0.70
2022-11-08T10:05:27.103Z,0.40
2022-11-08T10:07:55.928Z,0.60
2022-11-08T10:10:42.059Z,0.70
2022-11-08T10:13:12.518Z,0.63
2022-11-08T10:15:42.564Z,1.10
2022-11-08T10:18:16.505Z,0.90
2022-11-08T10:20:49.456Z,0.80
2022-11-08T10:23:22.102Z,0.53
2022-11-08T10:25:51.094Z,0.60
2022-11-08T10:28:20.118Z,0.43
2022-11-08T10:30:49.277Z,1.07
2022-11-08T10:33:18.578Z,0.53
2022-11-08T10:35:49.413Z,0.60
2022-11-08T10:38:18.896Z,0.70
2022-11-08T10:40:47.635Z,0.50
2022-11-08T10:43:16.719Z,0.60
2022-11-08T10:45:44.921Z,0.70
2022-11-08T10:48:13.198Z,0.60
2022-11-08T10:50:44.176Z,0.50
2022-11-08T10:53:16.214Z,0.87
2022-11-08T10:55:48.830Z,0.50
2022-11-08T10:58:33.204Z,0.40
2022-11-08T11:01:02.228Z,0.60
2022-11-08T11:03:30.508Z,0.50
2022-11-08T11:06:02.041Z,0.87
2022-11-08T11:08:31.768Z,0.87
2022-11-08T11:11:14.995Z,0.40
2022-11-08T11:13:43.227Z,0.70
2022-11-08T11:16:13.307Z,0.73
2022-11-08T11:18:47.000Z,0.70
2022-11-08T11:21:15.573Z,0.80
2022-11-08T11:23:46.091Z,0.80
2022-11-08T11:26:21.512Z,0.50
2022-11-08T11:29:03.707Z,0.70
2022-11-08T11:31:32.330Z,1.20
2022-11-08T11:34:00.611Z,1.00
2022-11-08T11:36:29.661Z,0.90
2022-11-08T11:39:00.157Z,1.07
2022-11-08T11:41:29.897Z,0.80
2022-11-08T11:44:00.050Z,0.60
2022-11-08T11:46:29.571Z,0.93
2022-11-08T11:49:00.190Z,0.60
2022-11-08T11:51:29.039Z,0.60
2022-11-08T11:53:57.311Z,0.90
2022-11-08T11:56:30.342Z,0.63
2022-11-08T11:59:04.784Z,1.03
2022-11-08T12:01:36.591Z,0.63
2022-11-08T12:04:23.668Z,0.40
2022-11-08T12:06:52.850Z,1.10
2022-11-08T12:09:23.452Z,0.80
2022-11-08T12:11:59.283Z,0.70
2022-11-08T12:14:34.657Z,1.30
2022-11-08T12:17:06.290Z,0.77
2022-11-08T12:19:37.672Z,0.50
2022-11-08T12:22:09.082Z,0.53
2022-11-08T12:24:43.640Z,0.70
2022-11-08T12:27:15.502Z,0.87
2022-11-08T12:29:45.363Z,0.60
2022-11-08T12:32:15.986Z,1.07
2022-11-08T12:34:47.301Z,0.87
2022-11-08T12:37:17.917Z,0.53
2022-11-08T12:39:46.945Z,0.57
2022-11-08T12:42:23.784Z,0.80
2022-11-08T12:44:56.311Z,0.80
2022-11-08T12:47:27.514Z,0.70
2022-11-08T12:49:57.322Z,0.80
2022-11-08T12:52:28.996Z,0.77
2022-11-08T12:54:59.459Z,0.70
2022-11-08T12:57:29.257Z,0.60
2022-11-08T12:59:59.882Z,0.70
2022-11-08T13:02:28.471Z,1.00
2022-11-08T13:04:58.337Z,0.70
2022-11-08T13:07:30.558Z,0.80
2022-11-08T13:10:00.695Z,1.03
2022-11-08T13:12:52.724Z,0.80
2022-11-08T13:15:22.757Z,0.70
2022-11-08T13:18:10.662Z,0.60
2022-11-08T13:20:39.223Z,0.80
2022-11-08T13:23:08.420Z,1.10
2022-11-08T13:25:40.407Z,0.70
2022-11-08T13:28:35.936Z,0.80
2022-11-08T13:31:09.855Z,0.70
2022-11-08T13:33:38.078Z,0.50
2022-11-08T13:36:10.535Z,0.73
2022-11-08T13:38:42.217Z,0.93
2022-11-08T13:41:17.763Z,1.03
2022-11-08T13:43:46.058Z,1.07
2022-11-08T13:46:32.854Z,0.97
2022-11-08T13:49:06.332Z,0.70
2022-11-08T13:51:35.653Z,0.80
2022-11-08T13:54:03.921Z,0.83
2022-11-08T13:56:47.331Z,1.10
2022-11-08T13:59:42.623Z,0.90
2022-11-08T14:02:15.133Z,1.00
2022-11-08T14:04:44.845Z,1.07
2022-11-08T14:07:13.517Z,0.83
2022-11-08T14:09:44.247Z,1.07
2022-11-08T14:12:12.991Z,0.80
2022-11-08T14:14:45.431Z,0.90
2022-11-08T14:17:40.793Z,1.10
2022-11-08T14:20:18.653Z,0.90
2022-11-08T14:22:50.179Z,0.90
2022-11-08T14:25:24.366Z,1.10
2022-11-08T14:27:52.584Z,0.90
2022-11-08T14:30:21.403Z,0.83
2022-11-08T14:32:49.832Z,0.97
2022-11-08T14:35:24.266Z,0.87
2022-11-08T14:37:52.678Z,1.40
2022-11-08T14:40:21.686Z,1.10
2022-11-08T14:42:49.934Z,1.10
2022-11-08T14:45:23.135Z,1.00
2022-11-08T14:47:54.076Z,1.00
2022-11-08T14:50:24.274Z,1.13
2022-11-08T14:52:52.609Z,1.30
2022-11-08T14:55:24.547Z,1.30
2022-11-08T14:57:53.090Z,1.20
2022-11-08T15:00:22.142Z,1.07
2022-11-08T15:02:51.544Z,39.77
2022-11-08T15:05:28.660Z,32.93
2022-11-08T15:07:57.013Z,21.77
2022-11-08T15:10:25.253Z,17.13
2022-11-08T15:12:53.591Z,13.20
2022-11-08T15:15:23.129Z,12.90
2022-11-08T15:18:04.040Z,11.63
2022-11-08T15:20:33.764Z,11.07
2022-11-08T15:23:01.955Z,9.57
2022-11-08T15:25:30.980Z,8.77
2022-11-08T15:27:59.716Z,7.73
2022-11-08T15:30:36.148Z,5.50
2022-11-08T15:33:04.540Z,5.30
2022-11-08T15:35:36.563Z,4.53
2022-11-08T15:38:05.264Z,3.90
2022-11-08T15:40:35.900Z,4.47
2022-11-08T15:43:04.219Z,3.77
2022-11-08T15:45:35.311Z,2.67
2022-11-08T15:48:12.427Z,2.80
2022-11-08T15:50:42.238Z,2.57
2022-11-08T15:53:10.961Z,3.07
2022-11-08T15:55:39.523Z,3.17
2022-11-08T15:58:11.171Z,2.67
2022-11-08T16:00:39.378Z,3.10
2022-11-08T16:03:07.595Z,2.60
2022-11-08T16:05:35.932Z,2.10
2022-11-08T16:08:05.556Z,2.27
2022-11-08T16:10:33.977Z,2.20
2022-11-08T16:13:02.423Z,2.03
2022-11-08T16:15:32.172Z,2.37
2022-11-08T16:18:00.416Z,2.53
2022-11-08T16:20:29.397Z,1.47
2022-11-08T16:22:57.765Z,2.17
2022-11-08T16:25:27.888Z,1.67
2022-11-08T16:27:58.056Z,1.30
2022-11-08T16:30:26.436Z,1.40
2022-11-08T16:32:54.686Z,1.60
2022-11-08T16:35:23.070Z,0.83
2022-11-08T16:37:51.419Z,1.80
2022-11-08T16:40:20.263Z,1.50
2022-11-08T16:42:50.471Z,1.53
2022-11-08T16:45:24.306Z,1.20
2022-11-08T16:48:05.812Z,1.40
2022-11-08T16:50:34.056Z,1.33
2022-11-08T16:53:02.278Z,1.10
2022-11-08T16:55:30.822Z,1.20
2022-11-08T16:58:00.393Z,1.30
2022-11-08T17:00:28.609Z,1.50
2022-11-08T17:02:56.913Z,1.70
2022-11-08T17:05:25.725Z,1.23
2022-11-08T17:07:55.664Z,1.33
2022-11-08T17:10:24.281Z,1.27
2022-11-08T17:12:52.556Z,1.43
2022-11-08T17:15:22.522Z,1.20
2022-11-08T17:17:50.907Z,1.83
2022-11-08T17:20:19.733Z,1.10
2022-11-08T17:22:48.103Z,1.70
2022-11-08T17:25:16.990Z,1.90
2022-11-08T17:27:45.326Z,1.60
2022-11-08T17:30:13.927Z,1.73
2022-11-08T17:32:43.676Z,1.23
2022-11-08T17:35:12.334Z,1.40
2022-11-08T17:37:40.579Z,2.07
2022-11-08T17:40:09.459Z,1.90
2022-11-08T17:42:38.973Z,1.33
2022-11-08T17:45:08.212Z,2.27
2022-11-08T17:47:36.422Z,1.70
2022-11-08T17:50:06.434Z,1.87
2022-11-08T17:52:34.860Z,2.07
2022-11-08T17:55:03.067Z,2.33
2022-11-08T17:57:31.386Z,3.30
2022-11-08T17:59:59.808Z,6.43
2022-11-08T18:02:28.332Z,4.57
2022-11-08T18:04:57.204Z,5.73
2022-11-08T18:07:26.979Z,6.23
2022-11-08T18:09:55.182Z,5.87
2022-11-08T18:12:23.399Z,7.50
2022-11-08T18:14:51.762Z,6.50
2022-11-08T18:17:22.198Z,9.53
2022-11-08T18:19:50.417Z,11.07
2022-11-08T18:22:18.761Z,10.93
2022-11-08T18:24:50.110Z,13.73
2022-11-08T18:27:18.593Z,12.93
2022-11-08T18:29:46.867Z,11.07
2022-11-08T18:32:15.186Z,8.97
2022-11-08T18:34:43.411Z,10.17
2022-11-08T18:37:11.773Z,12.40
2022-11-08T18:39:40.005Z,8.73
2022-11-08T18:42:09.621Z,6.50
2022-11-08T18:44:38.165Z,5.90
2022-11-08T18:47:06.642Z,5.73
2022-11-08T18:49:34.986Z,9.87
2022-11-08T18:52:03.238Z,18.60
2022-11-08T18:54:31.465Z,16.43
2022-11-08T18:56:59.692Z,12.57
2022-11-08T18:59:29.320Z,8.73
2022-11-08T19:01:57.758Z,7.97
2022-11-08T19:04:26.093Z,6.47
2022-11-08T19:06:54.987Z,4.57
2022-11-08T19:09:23.474Z,3.90
2022-11-08T19:11:53.226Z,4.00
2022-11-08T19:14:21.544Z,3.20
2022-11-08T19:16:54.543Z,3.93
2022-11-08T19:19:23.578Z,3.13
2022-11-08T19:21:51.919Z,3.00
2022-11-08T19:24:20.247Z,2.50
2022-11-08T19:26:48.608Z,1.93
2022-11-08T19:29:16.977Z,2.33
2022-11-08T19:31:45.433Z,2.10
2022-11-08T19:34:15.168Z,1.37
2022-11-08T19:36:44.247Z,1.33
2022-11-08T19:39:12.625Z,1.43
2022-11-08T19:41:40.987Z,1.97
2022-11-08T19:44:09.281Z,1.47
2022-11-08T19:46:38.980Z,1.70
2022-11-08T19:49:07.534Z,1.53
2022-11-08T19:51:37.130Z,0.90
2022-11-08T19:54:05.934Z,1.10
2022-11-08T19:57:02.736Z,1.20
2022-11-08T19:59:22.818Z,1.33
2022-11-08T20:01:51.235Z,1.63
2022-11-08T20:04:19.569Z,1.00
2022-11-08T20:06:49.220Z,1.40
2022-11-08T20:09:17.544Z,1.13
2022-11-08T20:11:45.779Z,1.10
2022-11-08T20:14:14.248Z,1.87
2022-11-08T20:16:43.087Z,0.70
2022-11-08T20:19:11.728Z,1.27
2022-11-08T20:21:42.098Z,0.60
2022-11-08T20:24:12.274Z,1.37
2022-11-08T20:26:41.284Z,0.90
2022-11-08T20:29:09.748Z,1.13
2022-11-08T20:31:38.689Z,0.83
2022-11-08T20:34:10.222Z,0.57
2022-11-08T20:36:38.920Z,1.20
2022-11-08T20:39:08.112Z,1.00
2022-11-08T20:41:39.231Z,0.63
2022-11-08T20:44:07.612Z,0.63
2022-11-08T20:46:35.858Z,1.10
2022-11-08T20:49:04.540Z,0.70
2022-11-08T20:51:32.835Z,0.80
2022-11-08T20:54:01.341Z,0.50
2022-11-08T20:56:29.809Z,1.07
2022-11-08T20:58:59.391Z,0.83
2022-11-08T21:01:29.617Z,0.80
2022-11-08T21:03:58.121Z,0.93
2022-11-08T21:06:26.800Z,1.20
2022-11-08T21:09:00.764Z,0.63
2022-11-08T21:11:32.484Z,1.30
2022-11-08T21:14:02.307Z,0.90
2022-11-08T21:16:38.141Z,0.83
2022-11-08T21:19:15.742Z,0.50
2022-11-08T21:21:46.218Z,0.83
2022-11-08T21:24:14.519Z,1.10
2022-11-08T21:26:42.930Z,0.93
2022-11-08T21:29:12.733Z,1.07
2022-11-08T21:31:40.970Z,0.73
2022-11-08T21:34:10.299Z,0.97
2022-11-08T21:36:38.595Z,1.13
2022-11-08T21:39:06.851Z,1.23
2022-11-08T21:41:35.166Z,0.80
2022-11-08T21:44:03.436Z,0.67
2022-11-08T21:46:33.660Z,0.60
2022-11-08T21:49:02.916Z,0.60
2022-11-08T21:51:31.320Z,0.73
2022-11-08T21:54:00.352Z,0.83
2022-11-08T21:56:30.151Z,1.20
2022-11-08T21:58:58.494Z,0.90
2022-11-08T22:01:30.269Z,0.97
2022-11-08T22:04:00.745Z,1.07
2022-11-08T22:06:29.215Z,1.23
2022-11-08T22:08:57.609Z,1.00
2022-11-08T22:11:26.004Z,1.00
2022-11-08T22:13:54.248Z,0.80
2022-11-08T22:16:22.497Z,0.67
2022-11-08T22:19:04.090Z,1.67
2022-11-08T22:21:43.276Z,1.20
2022-11-08T22:24:12.345Z,1.00
2022-11-08T22:26:40.643Z,0.90
2022-11-08T22:29:09.020Z,0.97
2022-11-08T22:31:37.435Z,1.00
2022-11-08T22:34:06.168Z,1.03
2022-11-08T22:36:38.689Z,1.10
2022-11-08T22:39:09.845Z,0.90
2022-11-08T22:41:38.087Z,0.97
2022-11-08T22:44:11.711Z,1.47
2022-11-08T22:46:40.765Z,0.97
2022-11-08T22:49:09.364Z,1.20
2022-11-08T22:51:38.981Z,0.90
2022-11-08T22:54:07.418Z,1.47
2022-11-08T22:56:35.892Z,0.93
2022-11-08T22:59:04.386Z,1.00
2022-11-08T23:01:32.812Z,0.80
2022-11-08T23:04:01.114Z,1.00
2022-11-08T23:06:29.425Z,1.40
2022-11-08T23:08:59.258Z,1.00
2022-11-08T23:11:45.223Z,2.03
2022-11-08T23:14:36.522Z,1.00
2022-11-08T23:17:05.598Z,1.00
2022-11-08T23:19:51.641Z,0.77
2022-11-08T23:22:37.507Z,1.00
2022-11-08T23:25:07.784Z,0.80
2022-11-08T23:27:53.606Z,1.40
2022-11-08T23:30:39.582Z,0.83
2022-11-08T23:33:07.866Z,1.30
2022-11-08T23:35:36.285Z,1.40
2022-11-08T23:38:04.637Z,1.00
2022-11-08T23:40:51.917Z,1.00
2022-11-08T23:43:38.280Z,1.30
2022-11-08T23:46:06.780Z,1.13
2022-11-08T23:48:34.972Z,1.20
2022-11-08T23:51:03.221Z,1.13
2022-11-08T23:53:31.535Z,1.20
2022-11-08T23:56:01.101Z,1.33
2022-11-08T23:58:29.335Z,1.10
